Isle of Skye, United Kingdom
Current Conditions -  °F | °C
As of 12:20 PM on Wednesday 26 Nov 2014 (Local Time) from EGEO Reporting Station
Few Clouds Few Clouds  
Wind Chill: 42°   Ceiling: Unl
Heat Index: 46°   Visibility: 6mi
Dew Point: 39°   Wind: 8mph
Humidity: 76%   Direction: 100°E
Pressure: 29.94"   Gusts: NA
Location:  57.11°N, 5.86°W
Report Text: EGEO 261220Z 10007KT 9999 FEW022 08/04 Q1014
Loading
Personal Weather Stations






























Interactive Weather Map New forecast layout! Learn more

10-Day Weather Forecast

Advertisements
Track Severe Weather on mobile